Time;durP1;ratioP1;P1;durP2;ratioP2;P2;SDS_P1;SDS_P2;PMS_P1;PMS_P2;Temp;Humidity;BMP_temperature;BMP_pressure;BME280_temperature;BME280_humidity;BME280_pressure;Samples;Min_cycle;Max_cycle;Signal;HPM_P1;HPM_P2
2022/09/03 00:00:54;;;;;;;6.03;5.17;;;;;;;;;;5081211;28;20446;-73
2022/09/03 00:03:25;;;;;;;4.93;4.43;;;;;;;;;;5082767;28;20506;-73
2022/09/03 00:05:56;;;;;;;4.73;4.33;;;;;;;;;;5094725;28;20457;-72
2022/09/03 00:08:26;;;;;;;5.40;4.90;;;;;;;;;;5083431;28;20459;-72
2022/09/03 00:10:57;;;;;;;4.73;4.30;;;;;;;;;;5094184;28;20453;-72
2022/09/03 00:13:26;;;;;;;7.33;5.10;;;;;;;;;;5084081;28;20475;-72
2022/09/03 00:15:54;;;;;;;7.53;5.57;;;;;;;;;;5089422;28;20448;-72
2022/09/03 00:18:22;;;;;;;4.43;4.10;;;;;;;;;;5085036;28;20461;-72
2022/09/03 00:20:51;;;;;;;6.30;3.77;;;;;;;;;;5095429;28;20486;-72
2022/09/03 00:23:22;;;;;;;5.10;4.30;;;;;;;;;;5095160;28;20487;-72
2022/09/03 00:25:51;;;;;;;3.93;3.60;;;;;;;;;;5081063;28;20951;-72
2022/09/03 00:28:23;;;;;;;4.27;3.87;;;;;;;;;;5095563;28;20446;-72
2022/09/03 00:30:54;;;;;;;4.10;3.60;;;;;;;;;;5094662;28;20457;-72
2022/09/03 00:33:22;;;;;;;7.73;4.47;;;;;;;;;;5075141;28;20468;-72
2022/09/03 00:35:52;;;;;;;4.60;4.00;;;;;;;;;;5088804;28;20442;-72
2022/09/03 00:38:20;;;;;;;6.07;3.90;;;;;;;;;;5095195;28;20455;-69
2022/09/03 00:41:01;;;;;;;5.37;3.93;;;;;;;;;;5095012;28;20455;-72
2022/09/03 00:43:38;;;;;;;6.53;4.20;;;;;;;;;;5094450;28;20486;-72
2022/09/03 00:46:10;;;;;;;7.90;5.00;;;;;;;;;;5080581;28;20463;-72
2022/09/03 00:48:45;;;;;;;6.60;5.10;;;;;;;;;;5094685;28;20784;-72
2022/09/03 00:51:20;;;;;;;4.30;3.60;;;;;;;;;;5079931;28;20463;-72
2022/09/03 00:53:51;;;;;;;9.73;4.10;;;;;;;;;;5088294;28;20686;-72
2022/09/03 00:56:22;;;;;;;5.90;4.33;;;;;;;;;;5074471;28;20865;-72
2022/09/03 00:58:58;;;;;;;4.70;4.13;;;;;;;;;;5074448;28;20808;-72
2022/09/03 01:01:30;;;;;;;4.30;3.90;;;;;;;;;;5074098;28;20555;-72
2022/09/03 01:04:02;;;;;;;6.90;4.70;;;;;;;;;;5088147;28;20533;-72
2022/09/03 01:06:32;;;;;;;5.40;3.90;;;;;;;;;;5084316;28;20842;-72
2022/09/03 01:09:09;;;;;;;4.50;4.10;;;;;;;;;;5077261;28;20462;-69
2022/09/03 01:11:41;;;;;;;5.83;4.03;;;;;;;;;;5084550;28;20454;-70
2022/09/03 01:14:17;;;;;;;5.27;4.47;;;;;;;;;;5090555;28;20471;-72
2022/09/03 01:16:49;;;;;;;6.67;4.20;;;;;;;;;;5084696;28;20810;-72
2022/09/03 01:19:27;;;;;;;6.77;4.63;;;;;;;;;;5090442;28;20513;-72
2022/09/03 01:22:10;;;;;;;5.10;4.53;;;;;;;;;;5085232;28;20459;-72
2022/09/03 01:24:45;;;;;;;6.10;3.87;;;;;;;;;;5093887;28;20495;-72
2022/09/03 01:27:20;;;;;;;4.60;4.20;;;;;;;;;;5080937;28;20470;-72
2022/09/03 01:29:52;;;;;;;4.43;3.93;;;;;;;;;;5079975;28;20978;-72
2022/09/03 01:32:23;;;;;;;6.20;4.83;;;;;;;;;;5094188;28;20450;-72
2022/09/03 01:34:55;;;;;;;9.03;4.43;;;;;;;;;;5087804;28;20467;-71
2022/09/03 01:37:29;;;;;;;5.67;5.07;;;;;;;;;;5086248;28;20446;-72
2022/09/03 01:40:02;;;;;;;5.80;4.17;;;;;;;;;;5093800;28;20447;-72
2022/09/03 01:42:33;;;;;;;5.10;4.67;;;;;;;;;;5093112;28;20463;-72
2022/09/03 01:45:11;;;;;;;6.40;4.63;;;;;;;;;;5093589;28;20969;-72
2022/09/03 01:47:46;;;;;;;4.93;4.30;;;;;;;;;;5093736;28;20508;-70
2022/09/03 01:50:17;;;;;;;4.73;4.20;;;;;;;;;;5079999;28;20508;-70
2022/09/03 01:52:48;;;;;;;4.90;4.50;;;;;;;;;;5093499;28;20455;-72
2022/09/03 01:55:23;;;;;;;6.10;5.07;;;;;;;;;;5077433;28;20820;-72
2022/09/03 01:57:55;;;;;;;4.80;4.40;;;;;;;;;;5082918;28;20446;-72
2022/09/03 02:00:23;;;;;;;5.47;4.97;;;;;;;;;;5079574;28;20455;-72
2022/09/03 02:02:51;;;;;;;4.80;4.40;;;;;;;;;;5085033;28;20456;-72
2022/09/03 02:05:21;;;;;;;6.70;4.57;;;;;;;;;;5072796;28;21035;-70
2022/09/03 02:07:51;;;;;;;4.53;4.10;;;;;;;;;;5080072;28;20458;-72
2022/09/03 02:10:20;;;;;;;6.60;4.10;;;;;;;;;;5093485;28;20524;-72
2022/09/03 02:12:48;;;;;;;8.30;4.20;;;;;;;;;;5087330;28;20454;-72
2022/09/03 02:15:18;;;;;;;7.43;4.50;;;;;;;;;;5085428;28;20488;-72
2022/09/03 02:17:48;;;;;;;5.23;4.73;;;;;;;;;;5093124;28;20485;-72
2022/09/03 02:20:19;;;;;;;4.80;4.30;;;;;;;;;;5093191;28;20546;-70
2022/09/03 02:22:47;;;;;;;5.30;4.80;;;;;;;;;;5088750;28;20452;-69
2022/09/03 02:25:14;;;;;;;5.30;4.67;;;;;;;;;;5083203;28;20494;-69
2022/09/03 02:27:41;;;;;;;10.20;5.33;;;;;;;;;;5078859;28;20443;-69
2022/09/03 02:30:09;;;;;;;6.80;4.60;;;;;;;;;;5093089;28;20506;-69
2022/09/03 02:32:36;;;;;;;7.93;4.90;;;;;;;;;;5092864;28;20462;-69
2022/09/03 02:35:05;;;;;;;4.50;4.10;;;;;;;;;;5092823;28;20967;-69
2022/09/03 02:37:32;;;;;;;8.20;4.73;;;;;;;;;;5078805;28;20491;-69
2022/09/03 02:39:59;;;;;;;6.10;5.00;;;;;;;;;;5072877;28;20452;-69
2022/09/03 02:42:27;;;;;;;5.97;4.33;;;;;;;;;;5085064;28;20455;-69
2022/09/03 02:44:56;;;;;;;4.87;4.47;;;;;;;;;;5087971;28;20519;-69
2022/09/03 02:47:23;;;;;;;5.47;4.93;;;;;;;;;;5072862;28;20464;-69
2022/09/03 02:49:51;;;;;;;6.23;5.33;;;;;;;;;;5075959;28;20932;-69
2022/09/03 02:52:19;;;;;;;5.57;4.47;;;;;;;;;;5092611;28;20445;-69
2022/09/03 02:54:46;;;;;;;5.47;4.60;;;;;;;;;;5083035;28;20841;-69
2022/09/03 02:57:15;;;;;;;4.70;4.30;;;;;;;;;;5090959;28;20448;-69
2022/09/03 02:59:44;;;;;;;4.60;4.20;;;;;;;;;;5076638;28;20455;-69
2022/09/03 03:02:11;;;;;;;8.53;4.30;;;;;;;;;;5093525;28;20917;-69
2022/09/03 03:04:39;;;;;;;6.37;4.60;;;;;;;;;;5087291;28;21010;-69
2022/09/03 03:07:06;;;;;;;5.00;4.50;;;;;;;;;;5090545;28;20944;-69
2022/09/03 03:09:34;;;;;;;5.87;4.83;;;;;;;;;;5084031;28;20451;-69
2022/09/03 03:12:01;;;;;;;6.70;4.40;;;;;;;;;;5096782;28;20462;-69
2022/09/03 03:14:28;;;;;;;6.63;4.70;;;;;;;;;;5082166;28;20466;-69
2022/09/03 03:16:56;;;;;;;4.20;3.80;;;;;;;;;;5096657;28;20454;-69
2022/09/03 03:19:23;;;;;;;5.20;4.80;;;;;;;;;;5092083;28;20459;-69
2022/09/03 03:21:50;;;;;;;5.60;4.43;;;;;;;;;;5076132;28;20451;-71
2022/09/03 03:24:17;;;;;;;5.43;4.60;;;;;;;;;;5092869;28;20487;-71
2022/09/03 03:26:45;;;;;;;5.23;4.27;;;;;;;;;;5096465;28;20450;-71
2022/09/03 03:29:15;;;;;;;4.93;4.40;;;;;;;;;;5096484;28;20975;-71
2022/09/03 03:31:42;;;;;;;5.80;3.93;;;;;;;;;;5096425;28;20508;-71
2022/09/03 03:34:09;;;;;;;4.40;3.80;;;;;;;;;;5095784;28;20469;-71
2022/09/03 03:36:36;;;;;;;3.87;3.57;;;;;;;;;;5096140;28;20474;-71
2022/09/03 03:39:04;;;;;;;5.50;4.30;;;;;;;;;;5096236;28;20446;-71
2022/09/03 03:41:32;;;;;;;7.37;4.50;;;;;;;;;;5076918;28;20466;-71
2022/09/03 03:44:01;;;;;;;4.47;4.07;;;;;;;;;;5075768;28;20504;-71
2022/09/03 03:46:30;;;;;;;4.47;4.03;;;;;;;;;;5075610;28;20455;-71
2022/09/03 03:48:58;;;;;;;5.63;4.33;;;;;;;;;;5085804;28;20465;-71
2022/09/03 03:51:25;;;;;;;6.57;4.67;;;;;;;;;;5095831;28;20454;-71
2022/09/03 03:53:55;;;;;;;4.37;3.80;;;;;;;;;;5094484;28;20475;-71
2022/09/03 03:56:22;;;;;;;4.40;4.00;;;;;;;;;;5095978;28;20485;-71
2022/09/03 03:58:49;;;;;;;4.83;4.33;;;;;;;;;;5096004;28;20457;-71
2022/09/03 04:01:18;;;;;;;4.63;4.23;;;;;;;;;;5095801;28;20874;-71
2022/09/03 04:03:46;;;;;;;5.57;4.97;;;;;;;;;;5095402;28;20477;-71
2022/09/03 04:06:13;;;;;;;6.30;3.83;;;;;;;;;;5094918;28;20460;-71
2022/09/03 04:08:41;;;;;;;5.50;4.07;;;;;;;;;;5095900;28;20815;-71
2022/09/03 04:11:09;;;;;;;5.03;4.07;;;;;;;;;;5096149;28;20461;-71
2022/09/03 04:13:37;;;;;;;5.50;4.20;;;;;;;;;;5095631;28;20471;-71
2022/09/03 04:16:05;;;;;;;7.07;3.70;;;;;;;;;;5095664;28;20451;-71
2022/09/03 04:18:35;;;;;;;7.23;4.57;;;;;;;;;;5095857;28;20920;-71
2022/09/03 04:21:03;;;;;;;3.90;3.60;;;;;;;;;;5095553;28;20512;-71
2022/09/03 04:23:30;;;;;;;4.60;4.20;;;;;;;;;;5095223;28;20466;-71
2022/09/03 04:25:57;;;;;;;4.30;4.00;;;;;;;;;;5095460;28;20995;-71
2022/09/03 04:28:25;;;;;;;4.23;3.77;;;;;;;;;;5095354;28;20457;-71
2022/09/03 04:30:52;;;;;;;8.00;3.67;;;;;;;;;;5095396;28;20458;-71
2022/09/03 04:33:19;;;;;;;6.63;3.80;;;;;;;;;;5095477;28;20501;-71
2022/09/03 04:35:49;;;;;;;4.20;3.80;;;;;;;;;;5095249;28;20451;-71
2022/09/03 04:38:17;;;;;;;4.60;3.60;;;;;;;;;;5095283;28;20450;-71
2022/09/03 04:40:45;;;;;;;4.90;3.43;;;;;;;;;;5095088;28;20446;-71
2022/09/03 04:43:12;;;;;;;4.10;3.77;;;;;;;;;;5095315;28;20806;-71
2022/09/03 04:45:39;;;;;;;5.40;3.67;;;;;;;;;;5094849;28;20482;-71
2022/09/03 04:48:09;;;;;;;3.30;3.00;;;;;;;;;;5095130;28;20447;-71
2022/09/03 04:50:36;;;;;;;5.13;3.70;;;;;;;;;;5095004;28;20545;-72
2022/09/03 04:53:05;;;;;;;4.67;4.27;;;;;;;;;;5095102;28;20963;-71
2022/09/03 04:55:33;;;;;;;3.93;3.63;;;;;;;;;;5094591;28;20443;-71
2022/09/03 04:58:00;;;;;;;3.80;3.50;;;;;;;;;;5094919;28;20967;-71
2022/09/03 05:00:28;;;;;;;4.70;3.83;;;;;;;;;;5094937;28;20459;-71
2022/09/03 05:02:55;;;;;;;6.43;4.20;;;;;;;;;;5095373;28;20821;-71
2022/09/03 05:05:22;;;;;;;4.70;4.03;;;;;;;;;;5094603;28;20486;-71
2022/09/03 05:07:49;;;;;;;4.37;3.97;;;;;;;;;;5094257;28;20513;-72
2022/09/03 05:10:20;;;;;;;4.00;3.60;;;;;;;;;;5094740;28;20455;-72
2022/09/03 05:12:48;;;;;;;4.43;4.03;;;;;;;;;;5094572;28;20932;-71
2022/09/03 05:15:15;;;;;;;4.50;4.10;;;;;;;;;;5094204;28;20467;-71
2022/09/03 05:17:43;;;;;;;3.60;3.30;;;;;;;;;;5093835;28;20458;-71
2022/09/03 05:20:10;;;;;;;4.03;3.73;;;;;;;;;;5094549;28;20447;-71
2022/09/03 05:22:37;;;;;;;3.90;3.40;;;;;;;;;;5094281;28;20897;-71
2022/09/03 05:25:05;;;;;;;5.77;3.60;;;;;;;;;;5094004;28;20494;-71
2022/09/03 05:27:33;;;;;;;6.97;3.47;;;;;;;;;;5094333;28;20825;-72
2022/09/03 05:30:00;;;;;;;4.80;3.60;;;;;;;;;;5094341;28;20451;-71
2022/09/03 05:32:30;;;;;;;5.93;3.83;;;;;;;;;;5094144;28;20453;-71
2022/09/03 05:34:57;;;;;;;4.47;4.07;;;;;;;;;;5094007;28;20470;-71
2022/09/03 05:37:24;;;;;;;3.93;3.57;;;;;;;;;;5094270;28;20454;-71
2022/09/03 05:39:52;;;;;;;3.40;3.10;;;;;;;;;;5094224;28;20462;-71
2022/09/03 05:42:20;;;;;;;3.33;3.03;;;;;;;;;;5094094;28;20466;-71
2022/09/03 05:44:50;;;;;;;3.60;3.30;;;;;;;;;;5093762;28;20486;-70
2022/09/03 05:47:17;;;;;;;3.50;3.20;;;;;;;;;;5093417;28;20978;-70
2022/09/03 05:49:44;;;;;;;4.00;3.13;;;;;;;;;;5093837;28;20450;-70
2022/09/03 05:52:11;;;;;;;3.70;3.00;;;;;;;;;;5093824;28;20451;-70
2022/09/03 05:54:38;;;;;;;3.20;2.90;;;;;;;;;;5093927;28;20474;-70
2022/09/03 05:57:06;;;;;;;3.33;3.00;;;;;;;;;;5094000;28;20455;-70
2022/09/03 05:59:33;;;;;;;9.67;3.17;;;;;;;;;;5093896;28;20454;-70
2022/09/03 06:02:01;;;;;;;4.37;3.00;;;;;;;;;;5093633;28;20461;-70
2022/09/03 06:04:28;;;;;;;3.87;3.20;;;;;;;;;;5093696;28;20963;-70
2022/09/03 06:06:56;;;;;;;2.93;2.63;;;;;;;;;;5093770;28;20454;-70
2022/09/03 06:09:23;;;;;;;6.80;2.77;;;;;;;;;;5093653;28;20458;-70
2022/09/03 06:11:50;;;;;;;3.73;2.90;;;;;;;;;;5093603;28;20461;-70
2022/09/03 06:14:18;;;;;;;3.83;2.90;;;;;;;;;;5088913;28;20473;-70
2022/09/03 06:16:47;;;;;;;3.20;2.33;;;;;;;;;;5092295;28;20431;-70
2022/09/03 06:19:16;;;;;;;2.90;1.97;;;;;;;;;;5092585;28;20857;-70
2022/09/03 06:21:45;;;;;;;2.83;2.20;;;;;;;;;;5091996;28;20516;-71
2022/09/03 06:24:12;;;;;;;2.77;2.33;;;;;;;;;;5092101;28;20475;-71
2022/09/03 06:26:39;;;;;;;6.07;3.10;;;;;;;;;;5092327;28;21019;-70
2022/09/03 06:29:07;;;;;;;4.40;3.63;;;;;;;;;;5091712;28;20455;-70
2022/09/03 06:31:34;;;;;;;4.57;2.67;;;;;;;;;;5092284;28;20454;-71
2022/09/03 06:34:02;;;;;;;8.07;3.70;;;;;;;;;;5092194;28;20470;-71
2022/09/03 06:36:30;;;;;;;6.07;3.33;;;;;;;;;;5091901;28;20486;-71
2022/09/03 06:38:57;;;;;;;2.93;2.63;;;;;;;;;;5092133;28;20798;-71
2022/09/03 06:41:25;;;;;;;7.93;3.13;;;;;;;;;;5091625;28;20835;-71
2022/09/03 06:43:53;;;;;;;5.20;3.23;;;;;;;;;;5091342;28;20862;-71
2022/09/03 06:46:21;;;;;;;5.20;3.20;;;;;;;;;;5092168;28;20478;-71
2022/09/03 06:48:49;;;;;;;6.43;2.90;;;;;;;;;;5091817;28;20454;-71
2022/09/03 06:51:18;;;;;;;4.33;2.73;;;;;;;;;;5094059;28;20458;-71
2022/09/03 06:53:48;;;;;;;4.30;2.63;;;;;;;;;;5093785;28;20504;-70
2022/09/03 06:56:17;;;;;;;2.97;2.70;;;;;;;;;;5093511;28;20458;-71
2022/09/03 06:58:45;;;;;;;2.97;2.50;;;;;;;;;;5093193;28;20955;-71
2022/09/03 07:01:14;;;;;;;3.70;2.83;;;;;;;;;;5092678;28;20490;-71
2022/09/03 07:03:42;;;;;;;2.67;2.47;;;;;;;;;;5092420;28;20483;-71
2022/09/03 07:06:10;;;;;;;3.20;2.60;;;;;;;;;;5092953;28;20824;-71
2022/09/03 07:08:37;;;;;;;2.47;2.20;;;;;;;;;;5093168;28;20897;-71
2022/09/03 07:11:08;;;;;;;3.83;2.90;;;;;;;;;;5093130;28;20435;-71
2022/09/03 07:13:35;;;;;;;5.13;2.57;;;;;;;;;;5092719;28;20506;-71
2022/09/03 07:16:03;;;;;;;2.50;2.20;;;;;;;;;;5092838;28;20447;-71
2022/09/03 07:18:30;;;;;;;3.73;2.40;;;;;;;;;;5093138;28;20842;-72
2022/09/03 07:21:01;;;;;;;3.53;2.73;;;;;;;;;;5093174;28;20457;-71
2022/09/03 07:23:28;;;;;;;4.53;2.50;;;;;;;;;;5092537;28;20470;-70
2022/09/03 07:25:56;;;;;;;3.60;2.37;;;;;;;;;;5092582;28;20482;-71
2022/09/03 07:28:24;;;;;;;5.30;2.33;;;;;;;;;;5092925;28;20507;-71
2022/09/03 07:30:52;;;;;;;4.20;2.60;;;;;;;;;;5093081;28;20451;-71
2022/09/03 07:33:19;;;;;;;5.37;2.10;;;;;;;;;;5092746;28;20462;-71
2022/09/03 07:35:46;;;;;;;3.27;2.40;;;;;;;;;;5092672;28;20806;-71
2022/09/03 07:38:17;;;;;;;3.13;2.43;;;;;;;;;;5092822;28;20450;-71
2022/09/03 07:40:45;;;;;;;4.23;2.43;;;;;;;;;;5094810;28;20507;-71
2022/09/03 07:43:12;;;;;;;5.53;4.63;;;;;;;;;;5096732;28;20892;-71
2022/09/03 07:45:45;;;;;;;5.77;2.70;;;;;;;;;;5096278;28;20493;-71
2022/09/03 07:48:12;;;;;;;5.00;2.67;;;;;;;;;;5096476;28;20450;-71
2022/09/03 07:50:39;;;;;;;4.53;2.50;;;;;;;;;;5096298;28;20458;-71
2022/09/03 07:53:07;;;;;;;4.00;2.60;;;;;;;;;;5096239;28;20458;-71
2022/09/03 07:55:35;;;;;;;3.20;2.40;;;;;;;;;;5096066;28;20454;-71
2022/09/03 07:58:02;;;;;;;2.93;2.40;;;;;;;;;;5096198;28;20489;-71
2022/09/03 08:00:31;;;;;;;2.50;2.30;;;;;;;;;;5096242;28;20963;-71
2022/09/03 08:03:04;;;;;;;3.67;2.50;;;;;;;;;;5096234;28;20453;-71
2022/09/03 08:05:32;;;;;;;6.80;2.73;;;;;;;;;;5095796;28;20486;-71
2022/09/03 08:08:00;;;;;;;3.60;2.50;;;;;;;;;;5095677;28;20473;-71
2022/09/03 08:10:29;;;;;;;3.90;2.87;;;;;;;;;;5095937;28;20447;-71
2022/09/03 08:12:57;;;;;;;4.37;3.73;;;;;;;;;;5096121;28;20900;-71
2022/09/03 08:15:24;;;;;;;4.57;2.80;;;;;;;;;;5095576;28;20513;-71
2022/09/03 08:17:51;;;;;;;3.07;2.83;;;;;;;;;;5096207;28;20467;-71
2022/09/03 08:20:20;;;;;;;5.03;3.77;;;;;;;;;;5095859;28;20958;-71
2022/09/03 08:22:47;;;;;;;3.73;2.83;;;;;;;;;;5095603;28;20455;-71
2022/09/03 08:25:14;;;;;;;3.60;2.50;;;;;;;;;;5095633;28;20474;-71
2022/09/03 08:27:41;;;;;;;3.10;2.80;;;;;;;;;;5095478;28;20952;-71
2022/09/03 08:30:10;;;;;;;4.50;2.80;;;;;;;;;;5095868;28;20454;-71
2022/09/03 08:32:37;;;;;;;3.67;2.73;;;;;;;;;;5095480;28;20455;-71
2022/09/03 08:35:05;;;;;;;7.53;4.53;;;;;;;;;;5095395;28;20971;-71
2022/09/03 08:37:33;;;;;;;3.67;2.60;;;;;;;;;;5095215;28;20447;-71
2022/09/03 08:40:02;;;;;;;2.77;2.57;;;;;;;;;;5095391;28;20446;-71
2022/09/03 08:42:32;;;;;;;6.47;3.43;;;;;;;;;;5095056;28;20509;-71
2022/09/03 08:45:01;;;;;;;3.87;3.13;;;;;;;;;;5095647;28;20493;-71
2022/09/03 08:47:30;;;;;;;4.33;2.50;;;;;;;;;;5095343;28;21104;-71
2022/09/03 08:49:59;;;;;;;4.60;2.20;;;;;;;;;;5095277;28;20454;-71
2022/09/03 08:52:31;;;;;;;3.00;2.47;;;;;;;;;;5095002;28;20454;-71
2022/09/03 08:55:03;;;;;;;4.23;2.80;;;;;;;;;;5095003;28;20478;-71
2022/09/03 08:57:32;;;;;;;2.90;2.60;;;;;;;;;;5095327;28;20451;-72
2022/09/03 09:00:00;;;;;;;4.13;2.70;;;;;;;;;;5095504;28;20943;-72
2022/09/03 09:02:37;;;;;;;2.33;2.13;;;;;;;;;;5095137;28;21021;-71
2022/09/03 09:05:10;;;;;;;4.57;2.90;;;;;;;;;;5095323;28;20481;-71
2022/09/03 09:07:42;;;;;;;3.43;2.70;;;;;;;;;;5094783;28;20515;-72
2022/09/03 09:10:13;;;;;;;2.70;2.50;;;;;;;;;;5095068;28;20450;-72
2022/09/03 09:12:44;;;;;;;3.50;2.83;;;;;;;;;;5094934;28;20475;-72
2022/09/03 09:15:13;;;;;;;2.73;2.53;;;;;;;;;;5094881;28;20471;-72
2022/09/03 09:17:53;;;;;;;9.00;2.60;;;;;;;;;;5094519;28;20451;-72
2022/09/03 09:20:24;;;;;;;3.10;2.47;;;;;;;;;;5094511;28;20435;-72
2022/09/03 09:22:53;;;;;;;8.00;2.63;;;;;;;;;;5094838;28;20458;-72
2022/09/03 09:25:23;;;;;;;4.40;2.90;;;;;;;;;;5094215;28;20471;-72
2022/09/03 09:27:52;;;;;;;4.50;2.70;;;;;;;;;;5094620;28;20543;-72
2022/09/03 09:30:20;;;;;;;2.80;2.50;;;;;;;;;;5094369;28;20447;-72
2022/09/03 09:32:47;;;;;;;3.17;2.77;;;;;;;;;;5094441;28;20538;-71
2022/09/03 09:35:15;;;;;;;5.73;2.53;;;;;;;;;;5094497;28;20808;-72
2022/09/03 09:37:51;;;;;;;3.90;2.90;;;;;;;;;;5094698;28;20447;-71
2022/09/03 09:40:40;;;;;;;4.67;3.07;;;;;;;;;;5094587;28;20518;-72
2022/09/03 09:43:10;;;;;;;5.97;3.57;;;;;;;;;;5086550;28;20505;-71
2022/09/03 09:45:39;;;;;;;3.77;2.57;;;;;;;;;;5093089;28;20439;-72
2022/09/03 09:48:10;;;;;;;2.93;2.70;;;;;;;;;;5093160;28;20808;-72
2022/09/03 09:50:38;;;;;;;4.40;3.13;;;;;;;;;;5092515;28;20526;-71
2022/09/03 09:53:13;;;;;;;5.13;2.87;;;;;;;;;;5092709;28;20460;-72
2022/09/03 09:55:49;;;;;;;8.97;3.20;;;;;;;;;;5092395;28;20461;-71
2022/09/03 09:58:19;;;;;;;3.60;2.47;;;;;;;;;;5092940;28;20462;-71
2022/09/03 10:00:55;;;;;;;5.83;2.67;;;;;;;;;;5092938;28;20815;-71
2022/09/03 10:03:22;;;;;;;2.90;2.70;;;;;;;;;;5092010;28;20466;-71
2022/09/03 10:05:58;;;;;;;2.50;2.30;;;;;;;;;;5093005;28;20470;-71
2022/09/03 10:08:25;;;;;;;4.20;2.77;;;;;;;;;;5093867;28;20435;-72
2022/09/03 10:10:52;;;;;;;3.00;2.70;;;;;;;;;;5093760;28;20469;-72
2022/09/03 10:13:24;;;;;;;3.33;3.03;;;;;;;;;;5093902;28;20434;-72
2022/09/03 10:15:52;;;;;;;4.10;3.03;;;;;;;;;;5093880;28;20804;-72
2022/09/03 10:18:27;;;;;;;4.87;2.63;;;;;;;;;;5093607;28;20938;-72
2022/09/03 10:20:57;;;;;;;4.20;2.80;;;;;;;;;;5093989;28;20537;-72
2022/09/03 10:23:27;;;;;;;2.53;2.30;;;;;;;;;;5093941;28;20972;-72
2022/09/03 10:26:03;;;;;;;2.60;2.40;;;;;;;;;;5093635;28;20447;-71
2022/09/03 10:28:38;;;;;;;2.70;2.50;;;;;;;;;;5093837;28;20438;-72
2022/09/03 10:31:18;;;;;;;3.33;2.23;;;;;;;;;;5093615;28;20470;-72
2022/09/03 10:33:49;;;;;;;3.77;2.90;;;;;;;;;;5093483;28;20479;-71
2022/09/03 10:36:19;;;;;;;5.30;2.80;;;;;;;;;;5093954;28;20461;-71
2022/09/03 10:38:49;;;;;;;7.30;3.00;;;;;;;;;;5093750;28;20503;-71
2022/09/03 10:41:22;;;;;;;10.47;3.10;;;;;;;;;;5093679;28;20519;-71
2022/09/03 10:44:05;;;;;;;3.23;2.23;;;;;;;;;;5093150;28;20497;-71
2022/09/03 10:46:36;;;;;;;6.77;3.27;;;;;;;;;;5093413;28;20987;-71
2022/09/03 10:49:18;;;;;;;2.90;2.60;;;;;;;;;;5093518;28;20984;-72
2022/09/03 10:51:48;;;;;;;2.40;2.20;;;;;;;;;;5093297;28;20423;-72
2022/09/03 10:54:23;;;;;;;4.00;2.30;;;;;;;;;;5092132;28;20477;-71
2022/09/03 10:56:54;;;;;;;2.83;2.63;;;;;;;;;;5091677;28;20450;-72
2022/09/03 10:59:31;;;;;;;3.20;2.50;;;;;;;;;;5092171;28;20441;-72
2022/09/03 11:02:05;;;;;;;3.57;3.00;;;;;;;;;;5091635;28;20948;-72
2022/09/03 11:04:38;;;;;;;2.90;2.60;;;;;;;;;;5091430;28;20541;-72
2022/09/03 11:07:08;;;;;;;3.43;2.30;;;;;;;;;;5090904;28;20486;-72
2022/09/03 11:09:38;;;;;;;3.37;3.00;;;;;;;;;;5091388;28;20451;-72
2022/09/03 11:12:07;;;;;;;4.03;2.63;;;;;;;;;;5091781;28;20529;-72
2022/09/03 11:14:38;;;;;;;3.50;2.83;;;;;;;;;;5091978;28;20467;-72
2022/09/03 11:17:08;;;;;;;3.10;2.80;;;;;;;;;;5095751;28;20439;-72
2022/09/03 11:19:37;;;;;;;4.80;3.13;;;;;;;;;;5095484;28;20748;-72
2022/09/03 11:22:06;;;;;;;3.03;2.40;;;;;;;;;;5095306;28;20463;-72
2022/09/03 11:24:34;;;;;;;3.13;2.80;;;;;;;;;;5094971;28;20481;-72
2022/09/03 11:27:05;;;;;;;4.90;3.83;;;;;;;;;;5095280;28;20493;-72
2022/09/03 11:29:37;;;;;;;3.63;3.33;;;;;;;;;;5095107;28;20435;-71
2022/09/03 11:32:10;;;;;;;4.03;3.40;;;;;;;;;;5095616;28;20912;-71
2022/09/03 11:34:46;;;;;;;5.83;3.40;;;;;;;;;;5094953;28;20474;-72
2022/09/03 11:37:21;;;;;;;6.13;3.60;;;;;;;;;;5094591;28;20514;-72
2022/09/03 11:39:56;;;;;;;4.30;3.43;;;;;;;;;;5095087;28;20450;-72
2022/09/03 11:42:31;;;;;;;3.87;3.27;;;;;;;;;;5095613;28;20489;-72
2022/09/03 11:45:13;;;;;;;3.20;2.90;;;;;;;;;;5087129;28;20486;-72
2022/09/03 11:47:42;;;;;;;4.07;3.67;;;;;;;;;;5094938;28;20528;-72
2022/09/03 11:50:19;;;;;;;3.60;2.83;;;;;;;;;;5095205;28;20443;-72
2022/09/03 11:52:47;;;;;;;3.13;2.83;;;;;;;;;;5094635;28;20497;-72
2022/09/03 11:55:25;;;;;;;3.30;3.00;;;;;;;;;;5095041;28;20921;-72
2022/09/03 11:57:52;;;;;;;4.80;3.30;;;;;;;;;;5094911;28;20813;-72
2022/09/03 12:00:21;;;;;;;3.00;2.70;;;;;;;;;;5094546;28;20469;-72
2022/09/03 12:02:51;;;;;;;8.13;3.00;;;;;;;;;;5094906;28;20484;-72
2022/09/03 12:05:23;;;;;;;4.70;3.40;;;;;;;;;;5095078;28;20835;-72
2022/09/03 12:08:05;;;;;;;4.00;3.37;;;;;;;;;;5095728;28;20987;-72
2022/09/03 12:10:37;;;;;;;3.30;3.00;;;;;;;;;;5094732;28;20948;-74
2022/09/03 12:13:13;;;;;;;4.00;2.90;;;;;;;;;;5095454;28;20459;-74
2022/09/03 12:15:55;;;;;;;3.23;2.93;;;;;;;;;;5095431;28;20970;-74
2022/09/03 12:18:25;;;;;;;3.13;2.70;;;;;;;;;;5095550;28;20453;-74
2022/09/03 12:21:02;;;;;;;5.50;2.70;;;;;;;;;;5095745;28;20819;-73
2022/09/03 12:23:30;;;;;;;2.80;2.57;;;;;;;;;;5095524;28;20485;-73
2022/09/03 12:25:59;;;;;;;7.23;2.60;;;;;;;;;;5095318;28;20843;-73
2022/09/03 12:28:29;;;;;;;3.17;2.40;;;;;;;;;;5095699;28;20478;-73
2022/09/03 12:31:07;;;;;;;2.93;2.47;;;;;;;;;;5095886;28;20834;-73
2022/09/03 12:33:35;;;;;;;3.10;2.43;;;;;;;;;;5095303;28;20478;-73
2022/09/03 12:36:03;;;;;;;4.93;2.33;;;;;;;;;;5095324;28;20459;-74
2022/09/03 12:38:31;;;;;;;4.00;2.53;;;;;;;;;;5095301;28;20454;-74
2022/09/03 12:40:58;;;;;;;3.10;2.40;;;;;;;;;;5095501;28;20492;-73
2022/09/03 12:43:28;;;;;;;3.97;2.63;;;;;;;;;;5095295;28;20475;-74
2022/09/03 12:45:55;;;;;;;4.73;4.23;;;;;;;;;;5095338;28;20952;-74
2022/09/03 12:48:22;;;;;;;3.00;2.77;;;;;;;;;;5095081;28;20549;-74
2022/09/03 12:51:01;;;;;;;3.47;3.00;;;;;;;;;;5095185;28;20454;-73
2022/09/03 12:53:30;;;;;;;3.93;2.90;;;;;;;;;;5094881;28;20995;-73
2022/09/03 12:55:58;;;;;;;4.40;2.70;;;;;;;;;;5094992;28;20447;-73
2022/09/03 12:58:26;;;;;;;9.40;3.03;;;;;;;;;;5095022;28;20951;-73
2022/09/03 13:00:57;;;;;;;6.80;3.50;;;;;;;;;;5094829;28;20442;-73
2022/09/03 13:03:28;;;;;;;2.50;2.30;;;;;;;;;;5095001;28;20985;-73
2022/09/03 13:05:58;;;;;;;5.80;2.90;;;;;;;;;;5094561;28;20455;-73
2022/09/03 13:08:27;;;;;;;2.97;2.57;;;;;;;;;;5094525;28;20491;-73
2022/09/03 13:10:55;;;;;;;3.53;3.10;;;;;;;;;;5094841;28;20439;-73
2022/09/03 13:13:23;;;;;;;6.10;3.00;;;;;;;;;;5094384;28;20481;-73
2022/09/03 13:16:01;;;;;;;3.47;2.60;;;;;;;;;;5094586;28;20455;-73
2022/09/03 13:18:32;;;;;;;3.10;2.90;;;;;;;;;;5094596;28;20454;-73
2022/09/03 13:21:11;;;;;;;4.93;2.50;;;;;;;;;;5094647;28;20837;-73
2022/09/03 13:23:45;;;;;;;2.87;2.43;;;;;;;;;;5094327;28;20967;-73
2022/09/03 13:26:22;;;;;;;3.00;2.60;;;;;;;;;;5094516;28;20465;-73
2022/09/03 13:29:00;;;;;;;3.27;2.97;;;;;;;;;;5094709;28;21065;-74
2022/09/03 13:31:30;;;;;;;7.90;3.23;;;;;;;;;;5094429;28;20546;-74
2022/09/03 13:34:01;;;;;;;3.80;2.83;;;;;;;;;;5094465;28;20463;-74
2022/09/03 13:36:31;;;;;;;3.57;3.27;;;;;;;;;;5094028;28;20469;-74
2022/09/03 13:39:04;;;;;;;4.07;3.07;;;;;;;;;;5093792;28;20818;-74
2022/09/03 13:41:35;;;;;;;5.27;3.03;;;;;;;;;;5094314;28;20458;-75
2022/09/03 13:44:07;;;;;;;3.00;2.80;;;;;;;;;;5093996;28;21034;-73
2022/09/03 13:46:39;;;;;;;3.03;2.73;;;;;;;;;;5094246;28;20467;-73
2022/09/03 13:52:02;;;;;;;4.00;3.00;;;;;;;;;;5094324;28;20425;-74
2022/09/03 13:54:33;;;;;;;3.80;2.87;;;;;;;;;;5093960;28;20945;-74
2022/09/03 13:57:03;;;;;;;3.40;3.17;;;;;;;;;;5093909;28;20508;-74
2022/09/03 13:59:33;;;;;;;7.03;3.33;;;;;;;;;;5094008;28;20974;-75
2022/09/03 14:02:17;;;;;;;3.50;2.80;;;;;;;;;;5094130;28;20480;-74
2022/09/03 14:04:50;;;;;;;3.30;3.00;;;;;;;;;;5093773;28;20998;-74
2022/09/03 14:07:22;;;;;;;2.93;2.73;;;;;;;;;;5093757;28;20486;-74
2022/09/03 14:09:57;;;;;;;2.70;2.50;;;;;;;;;;5093672;28;20508;-74
2022/09/03 14:12:30;;;;;;;5.70;2.47;;;;;;;;;;5093617;28;21008;-74
2022/09/03 14:15:01;;;;;;;3.13;2.83;;;;;;;;;;5093680;28;20497;-74
2022/09/03 14:17:32;;;;;;;4.47;2.90;;;;;;;;;;5093426;28;20810;-74
2022/09/03 14:20:03;;;;;;;4.07;2.80;;;;;;;;;;5093698;28;20843;-75
2022/09/03 14:22:39;;;;;;;2.53;2.33;;;;;;;;;;5093511;28;20948;-73
2022/09/03 14:25:12;;;;;;;3.37;2.93;;;;;;;;;;5093253;28;20971;-73
2022/09/03 14:27:39;;;;;;;2.80;2.60;;;;;;;;;;5093489;28;20487;-73
2022/09/03 14:30:08;;;;;;;3.40;2.60;;;;;;;;;;5093595;28;20450;-73
2022/09/03 14:32:41;;;;;;;4.77;2.70;;;;;;;;;;5093317;28;20546;-74
2022/09/03 14:35:15;;;;;;;2.80;2.50;;;;;;;;;;5093459;28;21014;-74
2022/09/03 14:37:51;;;;;;;4.17;2.60;;;;;;;;;;5093546;28;20471;-73
2022/09/03 14:40:19;;;;;;;3.63;2.50;;;;;;;;;;5093654;28;20522;-73
2022/09/03 14:43:07;;;;;;;4.07;3.03;;;;;;;;;;5093212;28;20465;-73
2022/09/03 14:45:51;;;;;;;3.40;3.10;;;;;;;;;;5067792;28;20454;-73
2022/09/03 14:48:31;;;;;;;3.90;2.47;;;;;;;;;;5092274;28;20487;-73
2022/09/03 14:51:07;;;;;;;4.00;3.30;;;;;;;;;;5099871;28;20462;-73
2022/09/03 14:53:48;;;;;;;2.67;2.47;;;;;;;;;;5099761;28;20538;-74
2022/09/03 14:56:22;;;;;;;2.60;2.40;;;;;;;;;;5100088;28;20874;-74
2022/09/03 14:59:00;;;;;;;2.93;2.30;;;;;;;;;;5100135;28;20457;-74
2022/09/03 15:01:30;;;;;;;3.00;2.70;;;;;;;;;;5099941;28;20512;-74
2022/09/03 15:04:13;;;;;;;4.10;3.20;;;;;;;;;;5099667;28;20481;-74